Time;durP1;ratioP1;P1;durP2;ratioP2;P2;SDS_P1;SDS_P2;PMS_P1;PMS_P2;Temp;Humidity;BMP_temperature;BMP_pressure;BME280_temperature;BME280_humidity;BME280_pressure;Samples;Min_cycle;Max_cycle;Signal;HPM_P1;HPM_P2
2021/05/27 00:02:23;;;;;;;1.40;0.90;;;;;;;;;;4931034;28;20110;-78
2021/05/27 00:04:49;;;;;;;1.52;0.90;;;;;;;;;;4930686;28;20071;-79
2021/05/27 00:07:16;;;;;;;1.73;1.00;;;;;;;;;;4934949;28;20087;-78
2021/05/27 00:09:42;;;;;;;1.60;1.13;;;;;;;;;;4929802;28;20490;-78
2021/05/27 00:12:09;;;;;;;1.50;0.90;;;;;;;;;;4937338;28;20035;-78
2021/05/27 00:14:35;;;;;;;1.77;1.05;;;;;;;;;;4939127;28;20048;-78
2021/05/27 00:17:02;;;;;;;2.03;1.10;;;;;;;;;;4922251;28;20094;-78
2021/05/27 00:19:29;;;;;;;2.45;1.10;;;;;;;;;;4917810;28;20052;-78
2021/05/27 00:21:55;;;;;;;1.67;1.10;;;;;;;;;;4926293;28;20661;-78
2021/05/27 00:24:22;;;;;;;2.05;1.05;;;;;;;;;;4927181;28;20054;-78
2021/05/27 00:26:48;;;;;;;3.50;1.15;;;;;;;;;;4922427;28;20055;-78
2021/05/27 00:29:15;;;;;;;1.70;1.10;;;;;;;;;;4922582;28;20469;-78
2021/05/27 00:31:41;;;;;;;2.25;1.08;;;;;;;;;;4921503;28;20063;-78
2021/05/27 00:34:08;;;;;;;2.55;1.00;;;;;;;;;;4911814;28;20064;-78
2021/05/27 00:36:34;;;;;;;2.20;1.00;;;;;;;;;;4926940;28;20531;-79
2021/05/27 00:39:01;;;;;;;1.75;1.00;;;;;;;;;;4923769;28;20075;-78
2021/05/27 00:41:27;;;;;;;1.67;1.00;;;;;;;;;;4921478;28;20063;-78
2021/05/27 00:43:54;;;;;;;2.13;1.10;;;;;;;;;;4938577;28;20049;-78
2021/05/27 00:46:20;;;;;;;1.50;1.00;;;;;;;;;;4943091;28;20094;-78
2021/05/27 00:49:00;;;;;;;2.42;1.02;;;;;;;;;;4921989;28;20127;-78
2021/05/27 00:51:30;;;;;;;2.08;1.02;;;;;;;;;;4932881;28;21367;-78
2021/05/27 00:53:57;;;;;;;2.33;1.10;;;;;;;;;;4937164;28;20079;-78
2021/05/27 00:56:23;;;;;;;1.38;1.00;;;;;;;;;;4924661;28;20043;-79
2021/05/27 00:58:50;;;;;;;1.73;1.02;;;;;;;;;;4921969;29;20031;-79
2021/05/27 01:01:17;;;;;;;2.38;1.05;;;;;;;;;;4937517;28;20051;-79
2021/05/27 01:03:43;;;;;;;3.03;1.20;;;;;;;;;;4944474;28;20055;-78
2021/05/27 01:06:13;;;;;;;1.98;1.00;;;;;;;;;;4919569;28;20068;-79
2021/05/27 01:08:39;;;;;;;1.92;1.10;;;;;;;;;;4921336;28;20063;-78
2021/05/27 01:11:06;;;;;;;1.45;1.02;;;;;;;;;;4900019;28;20080;-78
2021/05/27 01:13:33;;;;;;;2.85;1.25;;;;;;;;;;4914969;28;20052;-78
2021/05/27 01:16:00;;;;;;;1.40;1.05;;;;;;;;;;4920492;28;20118;-79
2021/05/27 01:18:27;;;;;;;2.22;1.08;;;;;;;;;;4929480;28;20563;-78
2021/05/27 01:20:57;;;;;;;1.50;0.90;;;;;;;;;;4931542;28;20138;-78
2021/05/27 01:23:26;;;;;;;2.05;0.90;;;;;;;;;;4919802;28;20064;-78
2021/05/27 01:25:54;;;;;;;1.38;1.05;;;;;;;;;;4943343;28;20063;-78
2021/05/27 01:28:21;;;;;;;2.22;1.10;;;;;;;;;;4918194;28;20099;-78
2021/05/27 01:30:48;;;;;;;2.58;1.08;;;;;;;;;;4922440;28;20191;-78
2021/05/27 01:33:17;;;;;;;1.77;0.95;;;;;;;;;;4922167;28;20079;-78
2021/05/27 01:35:45;;;;;;;1.67;1.20;;;;;;;;;;4949664;28;20063;-77
2021/05/27 01:38:16;;;;;;;1.70;1.00;;;;;;;;;;4925446;28;20063;-77
2021/05/27 01:40:43;;;;;;;1.65;0.90;;;;;;;;;;4932279;28;20047;-77
2021/05/27 01:43:09;;;;;;;2.15;0.90;;;;;;;;;;4904658;28;20027;-78
2021/05/27 01:45:36;;;;;;;1.85;1.00;;;;;;;;;;4932157;28;20067;-78
2021/05/27 01:48:03;;;;;;;1.50;0.95;;;;;;;;;;4933967;28;20107;-79
2021/05/27 01:50:29;;;;;;;2.38;1.20;;;;;;;;;;4933861;28;20126;-79
2021/05/27 01:52:57;;;;;;;1.27;0.90;;;;;;;;;;4926017;28;20054;-79
2021/05/27 01:55:24;;;;;;;1.63;0.90;;;;;;;;;;4939037;28;20201;-78
2021/05/27 01:57:50;;;;;;;1.20;0.82;;;;;;;;;;4931889;28;20063;-78
2021/05/27 02:00:17;;;;;;;1.70;1.05;;;;;;;;;;4923001;28;20056;-79
2021/05/27 02:02:44;;;;;;;1.40;1.08;;;;;;;;;;4923844;28;20474;-78
2021/05/27 02:05:11;;;;;;;2.17;1.13;;;;;;;;;;4924913;28;20071;-79
2021/05/27 02:07:37;;;;;;;1.48;1.00;;;;;;;;;;4927906;28;20067;-80
2021/05/27 02:10:04;;;;;;;1.67;0.98;;;;;;;;;;4922567;28;20127;-78
2021/05/27 02:12:30;;;;;;;1.55;1.08;;;;;;;;;;4924649;28;20080;-78
2021/05/27 02:14:57;;;;;;;1.83;0.95;;;;;;;;;;4924948;28;20115;-78
2021/05/27 02:17:23;;;;;;;1.17;1.00;;;;;;;;;;4930835;28;20879;-79
2021/05/27 02:19:50;;;;;;;1.63;0.98;;;;;;;;;;4929440;28;20051;-79
2021/05/27 02:22:16;;;;;;;1.90;0.90;;;;;;;;;;4924934;28;20051;-79
2021/05/27 02:24:43;;;;;;;1.80;1.00;;;;;;;;;;4933241;28;20043;-79
2021/05/27 02:27:10;;;;;;;2.38;1.10;;;;;;;;;;4941707;28;20059;-79
2021/05/27 02:29:36;;;;;;;1.38;1.00;;;;;;;;;;4918508;28;20578;-78
2021/05/27 02:32:03;;;;;;;2.00;1.00;;;;;;;;;;4941500;28;20067;-78
2021/05/27 02:34:29;;;;;;;2.13;1.00;;;;;;;;;;4928433;28;20658;-77
2021/05/27 02:36:56;;;;;;;1.40;0.88;;;;;;;;;;4940147;28;20736;-79
2021/05/27 02:39:22;;;;;;;1.83;1.05;;;;;;;;;;4936593;28;20532;-78
2021/05/27 02:41:49;;;;;;;2.55;0.90;;;;;;;;;;4932619;28;20063;-79
2021/05/27 02:44:15;;;;;;;1.80;0.90;;;;;;;;;;4935643;28;20098;-79
2021/05/27 02:46:42;;;;;;;2.10;1.00;;;;;;;;;;4924463;28;20070;-78
2021/05/27 02:49:08;;;;;;;1.13;0.90;;;;;;;;;;4922754;28;20075;-78
2021/05/27 02:51:35;;;;;;;1.23;0.80;;;;;;;;;;4936265;28;20046;-78
2021/05/27 02:54:01;;;;;;;2.25;1.00;;;;;;;;;;4907948;28;20510;-79
2021/05/27 02:56:28;;;;;;;1.13;0.80;;;;;;;;;;4939136;28;20032;-81
2021/05/27 02:58:54;;;;;;;1.88;1.02;;;;;;;;;;4924103;28;20518;-80
2021/05/27 03:01:20;;;;;;;1.25;0.90;;;;;;;;;;4915093;28;20070;-78
2021/05/27 03:03:47;;;;;;;1.38;0.90;;;;;;;;;;4941477;28;20412;-79
2021/05/27 03:06:13;;;;;;;2.65;1.02;;;;;;;;;;4919509;28;20067;-79
2021/05/27 03:08:41;;;;;;;1.50;0.98;;;;;;;;;;4925903;28;20111;-78
2021/05/27 03:11:08;;;;;;;1.73;0.80;;;;;;;;;;4917582;28;20064;-77
2021/05/27 03:13:35;;;;;;;1.40;0.90;;;;;;;;;;4923338;28;20059;-78
2021/05/27 03:16:02;;;;;;;1.33;0.90;;;;;;;;;;4929117;28;20564;-78
2021/05/27 03:18:30;;;;;;;2.13;1.00;;;;;;;;;;4923128;28;20071;-79
2021/05/27 03:20:57;;;;;;;1.50;1.08;;;;;;;;;;4925241;28;20075;-79
2021/05/27 03:23:23;;;;;;;1.42;1.00;;;;;;;;;;4921772;28;20055;-78
2021/05/27 03:25:49;;;;;;;1.13;0.80;;;;;;;;;;4920937;28;20047;-79
2021/05/27 03:28:16;;;;;;;2.38;0.90;;;;;;;;;;4941751;28;20066;-78
2021/05/27 03:30:42;;;;;;;1.42;0.95;;;;;;;;;;4924313;28;20036;-78
2021/05/27 03:33:09;;;;;;;1.90;1.00;;;;;;;;;;4918134;28;20052;-78
2021/05/27 03:35:36;;;;;;;1.13;0.90;;;;;;;;;;4944865;28;20068;-78
2021/05/27 03:38:02;;;;;;;2.30;1.00;;;;;;;;;;4924595;28;20106;-79
2021/05/27 03:40:29;;;;;;;1.50;1.00;;;;;;;;;;4934882;28;20055;-77
2021/05/27 03:42:56;;;;;;;2.22;0.93;;;;;;;;;;4930662;28;20064;-77
2021/05/27 03:45:27;;;;;;;1.92;0.90;;;;;;;;;;4918545;28;20052;-77
2021/05/27 03:47:53;;;;;;;2.05;1.13;;;;;;;;;;4933258;28;20154;-78
2021/05/27 03:50:21;;;;;;;2.00;0.98;;;;;;;;;;4931460;28;20052;-77
2021/05/27 03:52:47;;;;;;;7.60;2.35;;;;;;;;;;4933300;28;20134;-77
2021/05/27 03:55:16;;;;;;;6.35;2.42;;;;;;;;;;4931619;28;20059;-77
2021/05/27 03:57:43;;;;;;;9.75;2.70;;;;;;;;;;4931456;28;20036;-77
2021/05/27 04:02:58;;;;;;;9.88;3.10;;;;;;;;;;4921405;28;20084;-77
2021/05/27 04:08:10;;;;;;;9.52;2.80;;;;;;;;;;4920313;28;20131;-77
2021/05/27 04:10:36;;;;;;;9.07;2.50;;;;;;;;;;4913138;28;20516;-76
2021/05/27 04:13:02;;;;;;;7.43;2.67;;;;;;;;;;4914352;28;20056;-77
2021/05/27 04:15:32;;;;;;;11.30;2.83;;;;;;;;;;4932993;28;20126;-78
2021/05/27 04:18:05;;;;;;;6.70;2.40;;;;;;;;;;4917519;28;20036;-77
2021/05/27 04:20:33;;;;;;;10.45;3.13;;;;;;;;;;4931562;28;20059;-78
2021/05/27 04:23:00;;;;;;;9.73;2.63;;;;;;;;;;4930017;28;20075;-79
2021/05/27 04:25:26;;;;;;;7.32;2.35;;;;;;;;;;4919511;28;20763;-79
2021/05/27 04:27:54;;;;;;;9.30;2.60;;;;;;;;;;4936522;28;20456;-78
2021/05/27 04:30:21;;;;;;;6.78;2.53;;;;;;;;;;4918247;29;20504;-79
2021/05/27 04:33:01;;;;;;;6.45;2.30;;;;;;;;;;4922795;28;20068;-79
2021/05/27 04:35:29;;;;;;;6.93;2.33;;;;;;;;;;4922959;28;20079;-78
2021/05/27 04:37:56;;;;;;;6.10;2.10;;;;;;;;;;4920988;28;20103;-79
2021/05/27 04:40:23;;;;;;;7.55;2.47;;;;;;;;;;4918746;28;20139;-76
2021/05/27 04:42:49;;;;;;;4.03;1.75;;;;;;;;;;4930971;28;20063;-75
2021/05/27 04:45:16;;;;;;;9.10;2.35;;;;;;;;;;4917429;28;20063;-77
2021/05/27 04:47:43;;;;;;;4.80;1.83;;;;;;;;;;4927824;28;20059;-76
2021/05/27 04:50:10;;;;;;;4.82;1.67;;;;;;;;;;4924607;28;20618;-77
2021/05/27 04:52:36;;;;;;;8.57;2.00;;;;;;;;;;4934700;28;20068;-77
2021/05/27 04:55:05;;;;;;;5.43;1.90;;;;;;;;;;4921348;28;20083;-76
2021/05/27 04:57:31;;;;;;;6.63;1.80;;;;;;;;;;4936958;28;20157;-76
2021/05/27 04:59:58;;;;;;;4.85;1.60;;;;;;;;;;4919368;28;20155;-76
2021/05/27 05:02:24;;;;;;;9.07;1.85;;;;;;;;;;4932052;28;20078;-76
2021/05/27 05:04:51;;;;;;;4.45;1.50;;;;;;;;;;4936225;28;20044;-76
2021/05/27 05:07:17;;;;;;;4.47;1.70;;;;;;;;;;4945400;28;20055;-76
2021/05/27 05:09:46;;;;;;;6.30;1.65;;;;;;;;;;4936695;28;20800;-76
2021/05/27 05:12:13;;;;;;;3.38;1.60;;;;;;;;;;4923553;28;20533;-76
2021/05/27 05:14:39;;;;;;;6.93;1.88;;;;;;;;;;4923303;28;20103;-77
2021/05/27 05:17:07;;;;;;;5.07;1.83;;;;;;;;;;4927907;28;20040;-77
2021/05/27 05:19:33;;;;;;;11.35;1.80;;;;;;;;;;4935455;28;20404;-79
2021/05/27 05:22:00;;;;;;;4.50;1.83;;;;;;;;;;4922583;28;20556;-79
2021/05/27 05:24:26;;;;;;;2.88;1.67;;;;;;;;;;4920632;29;20063;-79
2021/05/27 05:26:53;;;;;;;3.83;1.60;;;;;;;;;;4926980;28;20059;-78
2021/05/27 05:29:20;;;;;;;3.50;1.40;;;;;;;;;;4930566;28;20092;-76
2021/05/27 05:31:49;;;;;;;2.85;1.40;;;;;;;;;;4929384;28;20063;-77
2021/05/27 05:34:15;;;;;;;5.45;1.73;;;;;;;;;;4925974;28;20066;-77
2021/05/27 05:36:41;;;;;;;2.67;1.30;;;;;;;;;;4922431;28;20170;-76
2021/05/27 05:39:08;;;;;;;4.07;1.50;;;;;;;;;;4927825;28;20156;-76
2021/05/27 05:41:34;;;;;;;6.13;1.50;;;;;;;;;;4919739;28;20044;-76
2021/05/27 05:44:01;;;;;;;4.30;1.38;;;;;;;;;;4932174;28;20059;-75
2021/05/27 05:46:30;;;;;;;2.45;1.27;;;;;;;;;;4935094;28;20096;-76
2021/05/27 05:48:57;;;;;;;5.78;1.35;;;;;;;;;;4925286;28;20574;-77
2021/05/27 05:51:23;;;;;;;3.42;1.40;;;;;;;;;;4930333;28;20067;-77
2021/05/27 05:53:50;;;;;;;3.42;1.63;;;;;;;;;;4941047;28;20064;-77
2021/05/27 05:56:16;;;;;;;4.25;1.30;;;;;;;;;;4917438;28;20111;-77
2021/05/27 05:58:42;;;;;;;2.75;1.23;;;;;;;;;;4938561;28;20068;-77
2021/05/27 06:01:09;;;;;;;2.95;1.33;;;;;;;;;;4929250;28;20064;-79
2021/05/27 06:03:35;;;;;;;2.63;1.20;;;;;;;;;;4942199;28;20075;-78
2021/05/27 06:06:02;;;;;;;4.05;1.40;;;;;;;;;;4914786;28;20043;-78
2021/05/27 06:08:28;;;;;;;3.40;1.17;;;;;;;;;;4924361;28;20094;-79
2021/05/27 06:10:55;;;;;;;3.33;1.25;;;;;;;;;;4932330;28;20130;-78
2021/05/27 06:13:21;;;;;;;3.30;1.17;;;;;;;;;;4917755;28;20063;-79
2021/05/27 06:15:48;;;;;;;4.05;1.30;;;;;;;;;;4943063;28;20136;-78
2021/05/27 06:18:16;;;;;;;3.28;1.42;;;;;;;;;;4933106;28;20074;-79
2021/05/27 06:20:43;;;;;;;2.80;1.10;;;;;;;;;;4927667;28;20071;-76
2021/05/27 06:23:09;;;;;;;2.05;1.25;;;;;;;;;;4932631;28;20031;-77
2021/05/27 06:25:38;;;;;;;4.22;1.20;;;;;;;;;;4918288;28;20055;-77
2021/05/27 06:28:04;;;;;;;2.78;1.40;;;;;;;;;;4930250;28;20048;-77
2021/05/27 06:30:31;;;;;;;3.63;1.13;;;;;;;;;;4930405;28;20088;-77
2021/05/27 06:32:58;;;;;;;3.45;1.20;;;;;;;;;;4920406;28;20070;-77
2021/05/27 06:35:27;;;;;;;2.40;1.35;;;;;;;;;;4932292;28;20099;-76
2021/05/27 06:37:59;;;;;;;3.75;1.45;;;;;;;;;;4914792;28;20072;-77
2021/05/27 06:40:27;;;;;;;6.05;1.38;;;;;;;;;;4934551;28;20063;-77
2021/05/27 06:42:54;;;;;;;3.17;1.30;;;;;;;;;;4948225;28;20491;-77
2021/05/27 06:45:21;;;;;;;2.55;1.35;;;;;;;;;;4918592;28;20136;-78
2021/05/27 06:47:50;;;;;;;2.17;1.20;;;;;;;;;;4938347;28;20071;-77
2021/05/27 06:50:32;;;;;;;3.28;1.10;;;;;;;;;;4937497;28;20111;-78
2021/05/27 06:53:01;;;;;;;1.83;1.08;;;;;;;;;;4922960;28;20071;-78
2021/05/27 06:55:28;;;;;;;3.20;1.38;;;;;;;;;;4932238;28;20142;-78
2021/05/27 06:57:54;;;;;;;2.03;1.15;;;;;;;;;;4924891;28;20067;-79
2021/05/27 07:00:21;;;;;;;2.78;1.33;;;;;;;;;;4916742;28;20100;-79
2021/05/27 07:02:48;;;;;;;2.92;1.02;;;;;;;;;;4941039;28;20071;-78
2021/05/27 07:05:15;;;;;;;2.55;1.30;;;;;;;;;;4938640;28;20064;-79
2021/05/27 07:07:41;;;;;;;2.25;1.08;;;;;;;;;;4938060;28;20098;-79
2021/05/27 07:10:08;;;;;;;2.58;1.10;;;;;;;;;;4935654;28;20072;-79
2021/05/27 07:12:34;;;;;;;3.15;1.20;;;;;;;;;;4920748;28;20139;-79
2021/05/27 07:15:01;;;;;;;1.70;1.08;;;;;;;;;;4922966;28;20059;-79
2021/05/27 07:17:28;;;;;;;3.10;1.20;;;;;;;;;;4900175;29;20063;-77
2021/05/27 07:19:54;;;;;;;2.97;1.25;;;;;;;;;;4928056;28;20059;-78
2021/05/27 07:22:21;;;;;;;2.38;1.20;;;;;;;;;;4938605;28;20086;-77
2021/05/27 07:24:48;;;;;;;1.90;1.33;;;;;;;;;;4931889;28;20457;-78
2021/05/27 07:27:14;;;;;;;3.45;1.23;;;;;;;;;;4936838;28;20114;-77
2021/05/27 07:29:43;;;;;;;2.42;1.20;;;;;;;;;;4928154;28;20146;-77
2021/05/27 07:32:09;;;;;;;1.70;1.00;;;;;;;;;;4928951;28;20070;-77
2021/05/27 07:34:37;;;;;;;2.50;1.02;;;;;;;;;;4936761;28;20792;-77
2021/05/27 07:37:04;;;;;;;3.13;1.02;;;;;;;;;;4916029;28;20071;-77
2021/05/27 07:39:31;;;;;;;1.75;1.00;;;;;;;;;;4934021;28;20070;-76
2021/05/27 07:41:57;;;;;;;2.83;1.30;;;;;;;;;;4918654;28;20051;-77
2021/05/27 07:44:24;;;;;;;1.92;1.13;;;;;;;;;;4921544;28;20102;-76
2021/05/27 07:46:50;;;;;;;2.40;1.13;;;;;;;;;;4934465;28;20115;-77
2021/05/27 07:49:16;;;;;;;2.03;1.25;;;;;;;;;;4934470;28;20075;-77
2021/05/27 07:51:44;;;;;;;3.20;1.20;;;;;;;;;;4914366;28;20055;-77
2021/05/27 07:54:10;;;;;;;3.90;1.30;;;;;;;;;;4918742;28;20056;-76
2021/05/27 07:56:36;;;;;;;3.83;1.35;;;;;;;;;;4925488;28;20063;-75
2021/05/27 07:59:03;;;;;;;2.13;1.10;;;;;;;;;;4918691;28;20103;-77
2021/05/27 08:01:29;;;;;;;5.75;1.55;;;;;;;;;;4930283;28;20114;-77
2021/05/27 08:03:59;;;;;;;3.88;1.30;;;;;;;;;;4931168;28;20067;-77
2021/05/27 08:06:25;;;;;;;3.35;1.40;;;;;;;;;;4924310;28;20133;-77
2021/05/27 08:08:52;;;;;;;2.08;1.20;;;;;;;;;;4913340;28;20544;-77
2021/05/27 08:11:19;;;;;;;2.92;1.40;;;;;;;;;;4917335;28;20083;-77
2021/05/27 08:13:46;;;;;;;2.35;1.40;;;;;;;;;;4946269;28;20054;-77
2021/05/27 08:16:13;;;;;;;3.17;1.40;;;;;;;;;;4921973;28;20516;-77
2021/05/27 08:18:40;;;;;;;3.42;1.35;;;;;;;;;;4905119;28;20134;-77
2021/05/27 08:21:07;;;;;;;2.00;1.08;;;;;;;;;;4940228;28;20110;-77
2021/05/27 08:23:34;;;;;;;3.50;1.38;;;;;;;;;;4923959;28;20043;-77
2021/05/27 08:26:01;;;;;;;2.80;1.40;;;;;;;;;;4931100;28;20067;-77
2021/05/27 08:28:27;;;;;;;2.67;1.50;;;;;;;;;;4930849;28;20067;-77
2021/05/27 08:30:54;;;;;;;3.25;1.42;;;;;;;;;;4916165;28;20452;-76
2021/05/27 08:33:21;;;;;;;2.58;1.20;;;;;;;;;;4916225;28;20035;-77
2021/05/27 08:35:48;;;;;;;3.00;1.10;;;;;;;;;;4905445;28;20154;-78
2021/05/27 08:38:14;;;;;;;3.72;1.35;;;;;;;;;;4924830;28;20059;-76
2021/05/27 08:40:41;;;;;;;4.53;1.42;;;;;;;;;;4929463;28;20030;-77
2021/05/27 08:43:07;;;;;;;3.97;1.40;;;;;;;;;;4921258;28;20067;-77
2021/05/27 08:45:36;;;;;;;4.13;1.42;;;;;;;;;;4935772;28;20595;-77
2021/05/27 08:48:03;;;;;;;2.92;1.50;;;;;;;;;;4941791;28;20039;-77
2021/05/27 08:50:31;;;;;;;4.15;1.38;;;;;;;;;;4934883;28;20039;-77
2021/05/27 08:53:00;;;;;;;3.97;1.50;;;;;;;;;;4927628;28;20087;-77
2021/05/27 08:55:27;;;;;;;2.80;1.40;;;;;;;;;;4924489;28;20068;-77
2021/05/27 08:57:53;;;;;;;3.40;1.40;;;;;;;;;;4936655;28;20064;-77
2021/05/27 09:00:20;;;;;;;2.97;1.35;;;;;;;;;;4925306;28;20028;-77
2021/05/27 09:02:53;;;;;;;4.43;1.30;;;;;;;;;;4919922;28;20056;-77
2021/05/27 09:05:20;;;;;;;2.90;1.10;;;;;;;;;;4925836;28;20908;-77
2021/05/27 09:07:46;;;;;;;2.45;1.10;;;;;;;;;;4916417;28;20068;-77
2021/05/27 09:10:13;;;;;;;2.33;1.40;;;;;;;;;;4924316;28;20131;-77
2021/05/27 09:12:40;;;;;;;2.10;1.20;;;;;;;;;;4934719;28;20548;-77
2021/05/27 09:15:19;;;;;;;2.50;1.27;;;;;;;;;;4939606;28;20075;-77
2021/05/27 09:17:52;;;;;;;3.00;1.50;;;;;;;;;;4933958;28;20032;-77
2021/05/27 09:20:26;;;;;;;2.92;1.25;;;;;;;;;;4926966;28;20150;-77
2021/05/27 09:23:11;;;;;;;2.65;1.10;;;;;;;;;;4928622;28;20515;-77
2021/05/27 09:25:39;;;;;;;2.78;1.30;;;;;;;;;;4917240;28;20071;-77
2021/05/27 09:28:06;;;;;;;1.73;1.20;;;;;;;;;;4941889;28;20507;-76
2021/05/27 09:30:41;;;;;;;2.47;1.20;;;;;;;;;;4919998;28;20070;-76
2021/05/27 09:33:08;;;;;;;1.98;1.20;;;;;;;;;;4934519;28;20114;-77
2021/05/27 09:35:34;;;;;;;2.38;1.05;;;;;;;;;;4929182;28;20200;-77
2021/05/27 09:38:01;;;;;;;2.25;1.25;;;;;;;;;;4918824;28;20056;-76
2021/05/27 09:40:36;;;;;;;2.42;1.20;;;;;;;;;;4930578;28;20087;-77
2021/05/27 09:43:07;;;;;;;1.77;1.25;;;;;;;;;;4921194;28;20175;-75
2021/05/27 09:45:34;;;;;;;1.90;1.00;;;;;;;;;;4940949;28;20091;-77
2021/05/27 09:48:17;;;;;;;2.25;1.05;;;;;;;;;;4927356;28;20091;-77
2021/05/27 09:50:43;;;;;;;1.90;1.00;;;;;;;;;;4941941;28;20701;-76
2021/05/27 09:53:13;;;;;;;1.52;1.10;;;;;;;;;;4936758;28;20881;-76
2021/05/27 09:55:40;;;;;;;2.17;1.30;;;;;;;;;;4934076;28;20052;-76
2021/05/27 09:58:11;;;;;;;1.80;0.90;;;;;;;;;;4933606;28;20110;-77
2021/05/27 10:00:38;;;;;;;3.03;1.17;;;;;;;;;;4905516;28;20056;-78
2021/05/27 10:03:23;;;;;;;3.38;1.25;;;;;;;;;;4937041;28;20079;-77
2021/05/27 10:05:49;;;;;;;3.17;1.08;;;;;;;;;;4919460;28;20067;-77
2021/05/27 10:08:17;;;;;;;2.67;1.15;;;;;;;;;;4941824;28;20058;-77
2021/05/27 10:10:44;;;;;;;1.63;0.90;;;;;;;;;;4925276;28;20504;-77
2021/05/27 10:13:12;;;;;;;2.45;1.10;;;;;;;;;;4937414;28;20059;-78
2021/05/27 10:15:41;;;;;;;4.32;1.30;;;;;;;;;;4937058;28;20108;-77
2021/05/27 10:18:08;;;;;;;2.78;1.02;;;;;;;;;;4933168;28;20063;-77
2021/05/27 10:20:35;;;;;;;3.42;1.40;;;;;;;;;;4941984;28;20067;-77
2021/05/27 10:23:04;;;;;;;3.78;1.17;;;;;;;;;;4933437;28;20062;-77
2021/05/27 10:25:30;;;;;;;2.30;1.00;;;;;;;;;;4923438;28;20520;-77
2021/05/27 10:27:58;;;;;;;1.80;1.00;;;;;;;;;;4917873;28;20067;-77
2021/05/27 10:30:25;;;;;;;2.05;0.90;;;;;;;;;;4928565;28;20049;-77
2021/05/27 10:33:01;;;;;;;4.53;1.10;;;;;;;;;;4925954;28;20094;-77
2021/05/27 10:35:49;;;;;;;1.65;0.90;;;;;;;;;;4930717;28;20071;-77
2021/05/27 10:38:16;;;;;;;2.15;0.93;;;;;;;;;;4920948;28;20067;-77
2021/05/27 10:40:43;;;;;;;3.00;1.15;;;;;;;;;;4939723;28;20162;-77
2021/05/27 10:43:16;;;;;;;2.42;1.08;;;;;;;;;;4918792;28;20060;-77
2021/05/27 10:46:10;;;;;;;2.28;0.90;;;;;;;;;;4943918;28;20064;-77
2021/05/27 10:48:43;;;;;;;2.22;1.00;;;;;;;;;;4895995;29;20329;-76
2021/05/27 10:51:22;;;;;;;4.22;2.40;;;;;;;;;;4934587;28;20575;-77
2021/05/27 10:53:52;;;;;;;9.18;6.90;;;;;;;;;;4922261;28;20176;-77
2021/05/27 10:56:39;;;;;;;4.90;4.43;;;;;;;;;;4917924;28;20794;-77
2021/05/27 10:59:10;;;;;;;6.00;3.40;;;;;;;;;;4930601;28;20582;-77
2021/05/27 11:01:37;;;;;;;3.80;3.40;;;;;;;;;;4933755;28;20110;-77
2021/05/27 11:04:04;;;;;;;4.10;2.70;;;;;;;;;;4914948;28;20105;-77
2021/05/27 11:06:32;;;;;;;4.43;2.15;;;;;;;;;;4921293;28;20059;-76
2021/05/27 11:09:11;;;;;;;2.75;1.75;;;;;;;;;;4914528;28;20063;-76
2021/05/27 11:11:42;;;;;;;2.08;1.60;;;;;;;;;;4917981;28;20063;-76
2021/05/27 11:14:20;;;;;;;3.50;1.77;;;;;;;;;;4915875;28;20074;-77
2021/05/27 11:17:08;;;;;;;2.88;1.60;;;;;;;;;;4929463;28;20101;-77
2021/05/27 11:19:50;;;;;;;2.63;1.60;;;;;;;;;;4910252;28;20139;-77
2021/05/27 11:25:11;;;;;;;2.22;1.45;;;;;;;;;;4903536;28;20032;-77
2021/05/27 11:27:38;;;;;;;2.60;1.40;;;;;;;;;;4927793;28;20117;-75
2021/05/27 11:30:14;;;;;;;2.03;1.15;;;;;;;;;;4916042;28;20062;-78
2021/05/27 11:32:43;;;;;;;1.38;1.00;;;;;;;;;;4935689;28;20040;-77
2021/05/27 11:35:10;;;;;;;2.67;1.23;;;;;;;;;;4931615;28;20056;-78
2021/05/27 11:37:37;;;;;;;6.85;1.20;;;;;;;;;;4933722;28;20058;-77
2021/05/27 11:40:08;;;;;;;2.50;1.30;;;;;;;;;;4921595;28;20083;-77
2021/05/27 11:42:34;;;;;;;1.93;1.20;;;;;;;;;;4928302;28;20628;-77
2021/05/27 11:45:02;;;;;;;1.40;1.00;;;;;;;;;;4924470;28;20403;-77
2021/05/27 11:47:29;;;;;;;2.90;1.05;;;;;;;;;;4915238;28;20138;-76
2021/05/27 11:50:02;;;;;;;1.38;0.93;;;;;;;;;;4904609;28;20051;-77
2021/05/27 11:52:29;;;;;;;2.27;1.00;;;;;;;;;;4911667;28;20095;-76
2021/05/27 11:54:58;;;;;;;2.70;1.13;;;;;;;;;;4918599;28;20060;-76
2021/05/27 11:57:44;;;;;;;1.70;0.90;;;;;;;;;;4924278;28;20067;-77
2021/05/27 12:00:12;;;;;;;2.05;1.27;;;;;;;;;;4922719;28;20032;-76
2021/05/27 12:03:05;;;;;;;2.33;1.02;;;;;;;;;;4923337;28;20056;-77
2021/05/27 12:05:32;;;;;;;1.92;1.02;;;;;;;;;;4923683;28;20567;-77
2021/05/27 12:08:00;;;;;;;2.72;0.90;;;;;;;;;;4917552;28;20599;-77
2021/05/27 12:10:31;;;;;;;2.38;0.90;;;;;;;;;;4936915;28;20129;-76
2021/05/27 12:12:58;;;;;;;1.43;0.70;;;;;;;;;;4944164;28;20612;-77
2021/05/27 12:15:25;;;;;;;2.33;1.13;;;;;;;;;;4917249;29;20067;-76
2021/05/27 12:17:52;;;;;;;1.90;1.05;;;;;;;;;;4915863;28;20063;-76
2021/05/27 12:20:27;;;;;;;4.20;1.20;;;;;;;;;;4930874;28;20162;-77
2021/05/27 12:22:55;;;;;;;1.13;0.90;;;;;;;;;;4908075;29;20058;-76
2021/05/27 12:25:32;;;;;;;3.08;0.93;;;;;;;;;;4931348;28;20067;-77
2021/05/27 12:28:00;;;;;;;2.97;0.93;;;;;;;;;;4902377;28;20921;-77
2021/05/27 12:30:36;;;;;;;1.75;0.90;;;;;;;;;;4922665;28;20469;-76
2021/05/27 12:33:07;;;;;;;1.98;0.95;;;;;;;;;;4941947;28;20127;-76
2021/05/27 12:35:43;;;;;;;1.63;1.00;;;;;;;;;;4925278;28;20518;-76
2021/05/27 12:38:29;;;;;;;1.95;0.80;;;;;;;;;;4930717;28;20543;-77
2021/05/27 12:41:01;;;;;;;1.58;0.88;;;;;;;;;;4926329;28;20492;-76
2021/05/27 12:43:31;;;;;;;2.58;0.85;;;;;;;;;;4930556;28;20277;-76
2021/05/27 12:46:03;;;;;;;2.42;0.88;;;;;;;;;;4922622;28;20455;-76
2021/05/27 12:48:37;;;;;;;1.63;0.90;;;;;;;;;;4927127;28;20055;-76
2021/05/27 12:51:07;;;;;;;0.93;0.73;;;;;;;;;;4918997;28;20492;-77
2021/05/27 12:53:33;;;;;;;1.55;0.80;;;;;;;;;;4925292;28;20441;-77
2021/05/27 12:56:12;;;;;;;1.40;1.00;;;;;;;;;;4942162;28;20464;-76
2021/05/27 12:58:40;;;;;;;2.03;0.95;;;;;;;;;;4922486;28;20465;-76
2021/05/27 13:01:07;;;;;;;1.33;1.00;;;;;;;;;;4929300;28;20063;-77
2021/05/27 13:03:50;;;;;;;1.80;1.08;;;;;;;;;;4934328;28;20055;-76
2021/05/27 13:06:18;;;;;;;1.27;0.80;;;;;;;;;;4934533;28;20075;-76
2021/05/27 13:08:45;;;;;;;3.10;0.82;;;;;;;;;;4938482;28;20905;-77
2021/05/27 13:11:17;;;;;;;1.65;0.90;;;;;;;;;;4928708;28;20063;-77
2021/05/27 13:13:44;;;;;;;1.98;1.00;;;;;;;;;;4932815;28;20087;-76
2021/05/27 13:16:30;;;;;;;1.63;0.93;;;;;;;;;;4930294;28;20554;-76
2021/05/27 13:18:56;;;;;;;2.42;1.02;;;;;;;;;;4934442;28;20056;-77
2021/05/27 13:21:23;;;;;;;2.15;1.00;;;;;;;;;;4917995;28;20070;-78
2021/05/27 13:23:49;;;;;;;1.33;0.88;;;;;;;;;;4936183;28;20059;-77
2021/05/27 13:26:19;;;;;;;1.70;0.88;;;;;;;;;;4933319;28;20087;-77
2021/05/27 13:28:46;;;;;;;1.90;0.80;;;;;;;;;;4915984;28;21779;-77
2021/05/27 13:31:13;;;;;;;2.88;0.80;;;;;;;;;;4919590;28;20050;-77
2021/05/27 13:33:39;;;;;;;1.48;0.90;;;;;;;;;;4931580;28;20068;-77
2021/05/27 13:36:06;;;;;;;1.60;0.77;;;;;;;;;;4925041;28;20047;-77
2021/05/27 13:38:33;;;;;;;1.60;0.82;;;;;;;;;;4930661;28;20062;-77
2021/05/27 13:41:05;;;;;;;1.58;0.73;;;;;;;;;;4917086;28;20068;-77
2021/05/27 13:43:34;;;;;;;5.15;0.90;;;;;;;;;;4929801;28;20110;-77
2021/05/27 13:46:08;;;;;;;2.00;0.80;;;;;;;;;;4923413;28;20902;-77
2021/05/27 13:48:35;;;;;;;2.28;0.80;;;;;;;;;;4937765;28;20100;-77
2021/05/27 13:51:05;;;;;;;2.20;1.08;;;;;;;;;;4943057;28;20040;-77
2021/05/27 13:53:32;;;;;;;1.73;0.98;;;;;;;;;;4939524;28;20127;-76
2021/05/27 13:56:01;;;;;;;2.65;0.95;;;;;;;;;;4930769;28;20063;-77
2021/05/27 13:58:27;;;;;;;2.70;0.90;;;;;;;;;;4929605;28;20059;-77
2021/05/27 14:00:54;;;;;;;1.88;1.00;;;;;;;;;;4924423;28;20126;-77
2021/05/27 14:03:21;;;;;;;1.50;0.70;;;;;;;;;;4937517;28;20044;-77
2021/05/27 14:05:48;;;;;;;1.95;1.10;;;;;;;;;;4936814;28;20126;-76
2021/05/27 14:08:16;;;;;;;1.05;0.77;;;;;;;;;;4915456;28;20138;-77
2021/05/27 14:10:43;;;;;;;1.70;0.90;;;;;;;;;;4925296;28;20529;-77
2021/05/27 14:13:09;;;;;;;1.85;1.08;;;;;;;;;;4930165;28;20067;-77
2021/05/27 14:15:36;;;;;;;1.95;0.90;;;;;;;;;;4924189;28;20067;-77
2021/05/27 14:18:03;;;;;;;0.93;0.60;;;;;;;;;;4936101;28;20092;-77
2021/05/27 14:20:29;;;;;;;1.40;0.90;;;;;;;;;;4936547;28;20077;-77
2021/05/27 14:22:57;;;;;;;1.63;0.95;;;;;;;;;;4927820;28;20066;-76
2021/05/27 14:25:24;;;;;;;1.33;0.90;;;;;;;;;;4940653;28;20141;-75
2021/05/27 14:27:51;;;;;;;0.73;0.70;;;;;;;;;;4936064;28;20604;-77
2021/05/27 14:30:17;;;;;;;2.78;0.90;;;;;;;;;;4924914;28;20063;-76
2021/05/27 14:32:44;;;;;;;0.93;0.70;;;;;;;;;;4950358;28;20049;-77
2021/05/27 14:35:10;;;;;;;2.80;0.90;;;;;;;;;;4918458;28;20035;-76
2021/05/27 14:37:37;;;;;;;2.53;0.80;;;;;;;;;;4943843;28;20063;-77
2021/05/27 14:40:04;;;;;;;3.03;0.90;;;;;;;;;;4930392;28;20508;-76
2021/05/27 14:42:30;;;;;;;1.60;0.90;;;;;;;;;;4925659;28;20064;-77
2021/05/27 14:44:57;;;;;;;2.42;0.98;;;;;;;;;;4917034;28;20068;-77
2021/05/27 14:47:23;;;;;;;1.30;0.95;;;;;;;;;;4924329;28;20075;-77
2021/05/27 14:49:50;;;;;;;3.13;1.10;;;;;;;;;;4927680;28;20132;-77
2021/05/27 14:52:16;;;;;;;1.42;0.80;;;;;;;;;;4935431;28;20508;-78
2021/05/27 14:54:43;;;;;;;1.92;0.90;;;;;;;;;;4933166;28;20072;-77
2021/05/27 14:57:09;;;;;;;1.50;0.85;;;;;;;;;;4923820;28;20103;-77
2021/05/27 14:59:35;;;;;;;1.90;0.80;;;;;;;;;;4937542;28;20067;-74